sensor_id;sensor_type;location;lat;lon;timestamp;pressure;altitude;pressure_sealevel;temperature
15079;BMP180;6932;51.438;5.470;2023-05-10T00:01:08;100472.00;;;18.90
15079;BMP180;6932;51.438;5.470;2023-05-10T00:03:34;100468.00;;;18.90
15079;BMP180;6932;51.438;5.470;2023-05-10T00:06:00;100472.00;;;19.00
15079;BMP180;6932;51.438;5.470;2023-05-10T00:08:25;100463.00;;;19.00
15079;BMP180;6932;51.438;5.470;2023-05-10T00:10:53;100471.00;;;19.00
15079;BMP180;6932;51.438;5.470;2023-05-10T00:13:18;100473.00;;;19.00
15079;BMP180;6932;51.438;5.470;2023-05-10T00:15:44;100469.00;;;19.00
15079;BMP180;6932;51.438;5.470;2023-05-10T00:18:10;100463.00;;;19.00
15079;BMP180;6932;51.438;5.470;2023-05-10T00:20:36;100464.00;;;19.00
15079;BMP180;6932;51.438;5.470;2023-05-10T00:23:02;100468.00;;;19.00
15079;BMP180;6932;51.438;5.470;2023-05-10T00:25:28;100463.00;;;19.00
15079;BMP180;6932;51.438;5.470;2023-05-10T00:27:53;100468.00;;;19.00
15079;BMP180;6932;51.438;5.470;2023-05-10T00:30:20;100468.00;;;19.00
15079;BMP180;6932;51.438;5.470;2023-05-10T00:32:46;100460.00;;;19.00
15079;BMP180;6932;51.438;5.470;2023-05-10T00:35:13;100471.00;;;19.00
15079;BMP180;6932;51.438;5.470;2023-05-10T00:37:39;100471.00;;;19.00
15079;BMP180;6932;51.438;5.470;2023-05-10T00:40:06;100465.00;;;19.00
15079;BMP180;6932;51.438;5.470;2023-05-10T00:42:32;100462.00;;;19.00
15079;BMP180;6932;51.438;5.470;2023-05-10T00:44:58;100458.00;;;19.00
15079;BMP180;6932;51.438;5.470;2023-05-10T00:47:24;100459.00;;;19.00
15079;BMP180;6932;51.438;5.470;2023-05-10T00:49:50;100454.00;;;19.00
15079;BMP180;6932;51.438;5.470;2023-05-10T00:52:16;100461.00;;;19.00
15079;BMP180;6932;51.438;5.470;2023-05-10T00:54:42;100460.00;;;19.00
15079;BMP180;6932;51.438;5.470;2023-05-10T00:57:08;100460.00;;;19.00
15079;BMP180;6932;51.438;5.470;2023-05-10T00:59:34;100455.00;;;19.00
15079;BMP180;6932;51.438;5.470;2023-05-10T01:02:01;100460.00;;;19.00
15079;BMP180;6932;51.438;5.470;2023-05-10T01:04:27;100457.00;;;19.00
15079;BMP180;6932;51.438;5.470;2023-05-10T01:06:54;100456.00;;;19.00
15079;BMP180;6932;51.438;5.470;2023-05-10T01:09:21;100462.00;;;19.00
15079;BMP180;6932;51.438;5.470;2023-05-10T01:11:48;100461.00;;;19.00
15079;BMP180;6932;51.438;5.470;2023-05-10T01:14:18;100461.00;;;19.00
15079;BMP180;6932;51.438;5.470;2023-05-10T01:16:46;100459.00;;;19.00
15079;BMP180;6932;51.438;5.470;2023-05-10T01:19:24;100452.00;;;19.00
15079;BMP180;6932;51.438;5.470;2023-05-10T01:22:22;100446.00;;;19.00
15079;BMP180;6932;51.438;5.470;2023-05-10T01:28:23;100443.00;;;19.00
15079;BMP180;6932;51.438;5.470;2023-05-10T01:31:22;100440.00;;;19.00
15079;BMP180;6932;51.438;5.470;2023-05-10T01:34:08;100445.00;;;19.00
15079;BMP180;6932;51.438;5.470;2023-05-10T01:36:59;100441.00;;;19.00
15079;BMP180;6932;51.438;5.470;2023-05-10T01:42:39;100443.00;;;19.00
15079;BMP180;6932;51.438;5.470;2023-05-10T01:45:18;100452.00;;;19.00
15079;BMP180;6932;51.438;5.470;2023-05-10T01:48:03;100448.00;;;19.00
15079;BMP180;6932;51.438;5.470;2023-05-10T01:50:32;100445.00;;;19.00
15079;BMP180;6932;51.438;5.470;2023-05-10T01:53:01;100458.00;;;19.00
15079;BMP180;6932;51.438;5.470;2023-05-10T01:55:32;100453.00;;;19.00
15079;BMP180;6932;51.438;5.470;2023-05-10T01:58:09;100456.00;;;19.00
15079;BMP180;6932;51.438;5.470;2023-05-10T02:00:40;100454.00;;;19.00
15079;BMP180;6932;51.438;5.470;2023-05-10T02:03:10;100450.00;;;19.00
15079;BMP180;6932;51.438;5.470;2023-05-10T02:05:37;100458.00;;;19.00
15079;BMP180;6932;51.438;5.470;2023-05-10T02:08:07;100457.00;;;19.00
15079;BMP180;6932;51.438;5.470;2023-05-10T02:10:39;100460.00;;;19.00
15079;BMP180;6932;51.438;5.470;2023-05-10T02:13:07;100456.00;;;19.00
15079;BMP180;6932;51.438;5.470;2023-05-10T02:15:34;100460.00;;;19.00
15079;BMP180;6932;51.438;5.470;2023-05-10T02:18:02;100465.00;;;19.00
15079;BMP180;6932;51.438;5.470;2023-05-10T02:20:31;100462.00;;;19.00
15079;BMP180;6932;51.438;5.470;2023-05-10T02:22:58;100473.00;;;19.00
15079;BMP180;6932;51.438;5.470;2023-05-10T02:25:26;100476.00;;;19.00
15079;BMP180;6932;51.438;5.470;2023-05-10T02:27:55;100475.00;;;19.00
15079;BMP180;6932;51.438;5.470;2023-05-10T02:30:23;100479.00;;;19.00
15079;BMP180;6932;51.438;5.470;2023-05-10T02:32:50;100478.00;;;19.00
15079;BMP180;6932;51.438;5.470;2023-05-10T02:35:17;100476.00;;;19.00
15079;BMP180;6932;51.438;5.470;2023-05-10T02:37:45;100476.00;;;19.00
15079;BMP180;6932;51.438;5.470;2023-05-10T02:40:14;100482.00;;;19.00
15079;BMP180;6932;51.438;5.470;2023-05-10T02:42:43;100478.00;;;19.00
15079;BMP180;6932;51.438;5.470;2023-05-10T02:45:18;100476.00;;;19.00
15079;BMP180;6932;51.438;5.470;2023-05-10T02:47:45;100485.00;;;19.00
15079;BMP180;6932;51.438;5.470;2023-05-10T02:50:11;100481.00;;;18.90
15079;BMP180;6932;51.438;5.470;2023-05-10T02:52:54;100482.00;;;19.00
15079;BMP180;6932;51.438;5.470;2023-05-10T02:55:26;100484.00;;;18.90
15079;BMP180;6932;51.438;5.470;2023-05-10T02:57:59;100478.00;;;18.90
15079;BMP180;6932;51.438;5.470;2023-05-10T03:00:25;100484.00;;;18.90
15079;BMP180;6932;51.438;5.470;2023-05-10T03:02:52;100484.00;;;18.90
15079;BMP180;6932;51.438;5.470;2023-05-10T03:05:18;100482.00;;;18.90
15079;BMP180;6932;51.438;5.470;2023-05-10T03:07:45;100489.00;;;18.90
15079;BMP180;6932;51.438;5.470;2023-05-10T03:10:11;100478.00;;;18.90
15079;BMP180;6932;51.438;5.470;2023-05-10T03:13:01;100488.00;;;18.90
15079;BMP180;6932;51.438;5.470;2023-05-10T03:16:07;100482.00;;;18.90
15079;BMP180;6932;51.438;5.470;2023-05-10T03:18:52;100480.00;;;18.90
15079;BMP180;6932;51.438;5.470;2023-05-10T03:21:25;100486.00;;;18.90
15079;BMP180;6932;51.438;5.470;2023-05-10T03:24:05;100483.00;;;18.90
15079;BMP180;6932;51.438;5.470;2023-05-10T03:26:33;100481.00;;;18.90
15079;BMP180;6932;51.438;5.470;2023-05-10T03:29:01;100494.00;;;18.90
15079;BMP180;6932;51.438;5.470;2023-05-10T03:31:27;100487.00;;;18.80
15079;BMP180;6932;51.438;5.470;2023-05-10T03:33:53;100491.00;;;18.90
15079;BMP180;6932;51.438;5.470;2023-05-10T03:36:19;100489.00;;;18.90
15079;BMP180;6932;51.438;5.470;2023-05-10T03:38:45;100494.00;;;18.90
15079;BMP180;6932;51.438;5.470;2023-05-10T03:41:11;100487.00;;;18.90
15079;BMP180;6932;51.438;5.470;2023-05-10T03:44:08;100504.00;;;18.90
15079;BMP180;6932;51.438;5.470;2023-05-10T03:46:34;100498.00;;;18.80
15079;BMP180;6932;51.438;5.470;2023-05-10T03:48:59;100503.00;;;18.80
15079;BMP180;6932;51.438;5.470;2023-05-10T03:51:25;100502.00;;;18.80
15079;BMP180;6932;51.438;5.470;2023-05-10T03:53:54;100505.00;;;18.80
15079;BMP180;6932;51.438;5.470;2023-05-10T03:56:21;100506.00;;;18.90
15079;BMP180;6932;51.438;5.470;2023-05-10T03:58:47;100505.00;;;18.80
15079;BMP180;6932;51.438;5.470;2023-05-10T04:01:12;100505.00;;;18.80
15079;BMP180;6932;51.438;5.470;2023-05-10T04:03:38;100504.00;;;18.80
15079;BMP180;6932;51.438;5.470;2023-05-10T04:06:04;100506.00;;;18.80
15079;BMP180;6932;51.438;5.470;2023-05-10T04:08:31;100509.00;;;18.80
15079;BMP180;6932;51.438;5.470;2023-05-10T04:11:08;100512.00;;;18.90
15079;BMP180;6932;51.438;5.470;2023-05-10T04:13:35;100507.00;;;18.80
15079;BMP180;6932;51.438;5.470;2023-05-10T04:16:01;100519.00;;;18.80
15079;BMP180;6932;51.438;5.470;2023-05-10T04:18:27;100520.00;;;18.80
15079;BMP180;6932;51.438;5.470;2023-05-10T04:20:52;100508.00;;;18.80
15079;BMP180;6932;51.438;5.470;2023-05-10T04:23:18;100515.00;;;18.80
15079;BMP180;6932;51.438;5.470;2023-05-10T04:25:44;100517.00;;;18.80
15079;BMP180;6932;51.438;5.470;2023-05-10T04:28:10;100516.00;;;18.80
15079;BMP180;6932;51.438;5.470;2023-05-10T04:30:36;100510.00;;;18.80
15079;BMP180;6932;51.438;5.470;2023-05-10T04:33:03;100521.00;;;18.80
15079;BMP180;6932;51.438;5.470;2023-05-10T04:35:29;100535.00;;;19.20
15079;BMP180;6932;51.438;5.470;2023-05-10T04:37:54;100535.00;;;19.00
15079;BMP180;6932;51.438;5.470;2023-05-10T04:40:20;100540.00;;;19.00
15079;BMP180;6932;51.438;5.470;2023-05-10T04:42:46;100529.00;;;19.00
15079;BMP180;6932;51.438;5.470;2023-05-10T04:45:12;100543.00;;;19.00
15079;BMP180;6932;51.438;5.470;2023-05-10T04:47:40;100543.00;;;18.90
15079;BMP180;6932;51.438;5.470;2023-05-10T04:50:06;100541.00;;;19.00
15079;BMP180;6932;51.438;5.470;2023-05-10T04:52:32;100544.00;;;19.00
15079;BMP180;6932;51.438;5.470;2023-05-10T04:54:58;100543.00;;;19.00
15079;BMP180;6932;51.438;5.470;2023-05-10T04:57:24;100544.00;;;18.90
15079;BMP180;6932;51.438;5.470;2023-05-10T04:59:50;100551.00;;;18.90
15079;BMP180;6932;51.438;5.470;2023-05-10T05:02:16;100553.00;;;18.90
15079;BMP180;6932;51.438;5.470;2023-05-10T05:04:42;100549.00;;;18.90
15079;BMP180;6932;51.438;5.470;2023-05-10T05:07:07;100547.00;;;18.90
15079;BMP180;6932;51.438;5.470;2023-05-10T05:09:33;100540.00;;;18.90
15079;BMP180;6932;51.438;5.470;2023-05-10T05:11:59;100549.00;;;18.90
15079;BMP180;6932;51.438;5.470;2023-05-10T05:14:25;100546.00;;;18.90
15079;BMP180;6932;51.438;5.470;2023-05-10T05:16:52;100554.00;;;18.90
15079;BMP180;6932;51.438;5.470;2023-05-10T05:19:18;100555.00;;;18.90
15079;BMP180;6932;51.438;5.470;2023-05-10T05:21:43;100556.00;;;18.90
15079;BMP180;6932;51.438;5.470;2023-05-10T05:24:09;100566.00;;;18.90
15079;BMP180;6932;51.438;5.470;2023-05-10T05:26:36;100564.00;;;19.00
15079;BMP180;6932;51.438;5.470;2023-05-10T05:29:02;100560.00;;;19.00
15079;BMP180;6932;51.438;5.470;2023-05-10T05:31:28;100571.00;;;19.00
15079;BMP180;6932;51.438;5.470;2023-05-10T05:33:54;100561.00;;;19.00
15079;BMP180;6932;51.438;5.470;2023-05-10T05:36:21;100577.00;;;19.00
15079;BMP180;6932;51.438;5.470;2023-05-10T05:38:46;100573.00;;;19.00
15079;BMP180;6932;51.438;5.470;2023-05-10T05:41:12;100577.00;;;19.00
15079;BMP180;6932;51.438;5.470;2023-05-10T05:43:38;100570.00;;;19.00
15079;BMP180;6932;51.438;5.470;2023-05-10T05:46:04;100576.00;;;19.00
15079;BMP180;6932;51.438;5.470;2023-05-10T05:48:31;100578.00;;;19.10
15079;BMP180;6932;51.438;5.470;2023-05-10T05:50:57;100576.00;;;19.10
15079;BMP180;6932;51.438;5.470;2023-05-10T05:53:23;100575.00;;;19.10
15079;BMP180;6932;51.438;5.470;2023-05-10T05:55:57;100581.00;;;19.10
15079;BMP180;6932;51.438;5.470;2023-05-10T05:58:24;100587.00;;;19.10
15079;BMP180;6932;51.438;5.470;2023-05-10T06:00:51;100582.00;;;19.10
15079;BMP180;6932;51.438;5.470;2023-05-10T06:03:18;100588.00;;;19.10
15079;BMP180;6932;51.438;5.470;2023-05-10T06:05:44;100596.00;;;19.10
15079;BMP180;6932;51.438;5.470;2023-05-10T06:08:10;100596.00;;;19.10
15079;BMP180;6932;51.438;5.470;2023-05-10T06:10:36;100602.00;;;19.10
15079;BMP180;6932;51.438;5.470;2023-05-10T06:13:02;100598.00;;;19.10
15079;BMP180;6932;51.438;5.470;2023-05-10T06:15:28;100611.00;;;19.10
15079;BMP180;6932;51.438;5.470;2023-05-10T06:17:54;100610.00;;;19.10
15079;BMP180;6932;51.438;5.470;2023-05-10T06:20:19;100605.00;;;19.10
15079;BMP180;6932;51.438;5.470;2023-05-10T06:22:45;100609.00;;;19.10
15079;BMP180;6932;51.438;5.470;2023-05-10T06:25:11;100609.00;;;19.10
15079;BMP180;6932;51.438;5.470;2023-05-10T06:27:37;100619.00;;;19.10
15079;BMP180;6932;51.438;5.470;2023-05-10T06:30:04;100616.00;;;19.20
15079;BMP180;6932;51.438;5.470;2023-05-10T06:32:30;100620.00;;;19.20
15079;BMP180;6932;51.438;5.470;2023-05-10T06:34:56;100620.00;;;19.20
15079;BMP180;6932;51.438;5.470;2023-05-10T06:37:21;100622.00;;;19.20
15079;BMP180;6932;51.438;5.470;2023-05-10T06:39:47;100622.00;;;19.20
15079;BMP180;6932;51.438;5.470;2023-05-10T06:42:13;100619.00;;;19.20
15079;BMP180;6932;51.438;5.470;2023-05-10T06:44:38;100626.00;;;19.20
15079;BMP180;6932;51.438;5.470;2023-05-10T06:47:04;100627.00;;;19.20
15079;BMP180;6932;51.438;5.470;2023-05-10T06:49:30;100635.00;;;19.20
15079;BMP180;6932;51.438;5.470;2023-05-10T06:51:56;100632.00;;;19.30
15079;BMP180;6932;51.438;5.470;2023-05-10T06:54:22;100631.00;;;19.30
15079;BMP180;6932;51.438;5.470;2023-05-10T06:56:48;100630.00;;;19.30
15079;BMP180;6932;51.438;5.470;2023-05-10T06:59:14;100635.00;;;19.30
15079;BMP180;6932;51.438;5.470;2023-05-10T07:01:42;100631.00;;;19.40
15079;BMP180;6932;51.438;5.470;2023-05-10T07:04:08;100637.00;;;19.40
15079;BMP180;6932;51.438;5.470;2023-05-10T07:06:34;100642.00;;;19.40
15079;BMP180;6932;51.438;5.470;2023-05-10T07:09:00;100638.00;;;19.50
15079;BMP180;6932;51.438;5.470;2023-05-10T07:11:26;100651.00;;;19.50
15079;BMP180;6932;51.438;5.470;2023-05-10T07:13:52;100639.00;;;19.50
15079;BMP180;6932;51.438;5.470;2023-05-10T07:16:18;100651.00;;;19.50
15079;BMP180;6932;51.438;5.470;2023-05-10T07:18:44;100651.00;;;19.50
15079;BMP180;6932;51.438;5.470;2023-05-10T07:21:10;100659.00;;;19.50
15079;BMP180;6932;51.438;5.470;2023-05-10T07:23:35;100660.00;;;19.50
15079;BMP180;6932;51.438;5.470;2023-05-10T07:33:23;100668.00;;;19.50
15079;BMP180;6932;51.438;5.470;2023-05-10T07:35:50;100666.00;;;19.50
15079;BMP180;6932;51.438;5.470;2023-05-10T07:38:15;100675.00;;;19.50
15079;BMP180;6932;51.438;5.470;2023-05-10T07:40:42;100673.00;;;19.50
15079;BMP180;6932;51.438;5.470;2023-05-10T07:43:08;100665.00;;;19.50
15079;BMP180;6932;51.438;5.470;2023-05-10T07:45:34;100666.00;;;19.50
15079;BMP180;6932;51.438;5.470;2023-05-10T07:48:00;100674.00;;;19.50
15079;BMP180;6932;51.438;5.470;2023-05-10T07:50:25;100670.00;;;19.50
15079;BMP180;6932;51.438;5.470;2023-05-10T07:52:51;100684.00;;;19.50
15079;BMP180;6932;51.438;5.470;2023-05-10T07:55:18;100682.00;;;19.50
15079;BMP180;6932;51.438;5.470;2023-05-10T07:57:44;100700.00;;;19.50
15079;BMP180;6932;51.438;5.470;2023-05-10T08:00:18;100693.00;;;19.60
15079;BMP180;6932;51.438;5.470;2023-05-10T08:02:44;100690.00;;;19.50
15079;BMP180;6932;51.438;5.470;2023-05-10T08:05:10;100693.00;;;19.50
15079;BMP180;6932;51.438;5.470;2023-05-10T08:08:31;100708.00;;;19.50
15079;BMP180;6932;51.438;5.470;2023-05-10T08:10:57;100698.00;;;19.50
15079;BMP180;6932;51.438;5.470;2023-05-10T08:13:23;100711.00;;;19.50
15079;BMP180;6932;51.438;5.470;2023-05-10T08:15:49;100718.00;;;19.50
15079;BMP180;6932;51.438;5.470;2023-05-10T08:18:15;100721.00;;;19.50
15079;BMP180;6932;51.438;5.470;2023-05-10T08:20:41;100726.00;;;19.50
15079;BMP180;6932;51.438;5.470;2023-05-10T08:23:07;100723.00;;;19.50
15079;BMP180;6932;51.438;5.470;2023-05-10T08:25:32;100723.00;;;19.50
15079;BMP180;6932;51.438;5.470;2023-05-10T08:31:39;100719.00;;;19.50
15079;BMP180;6932;51.438;5.470;2023-05-10T08:34:05;100721.00;;;19.50
15079;BMP180;6932;51.438;5.470;2023-05-10T08:36:31;100725.00;;;19.50
15079;BMP180;6932;51.438;5.470;2023-05-10T08:38:58;100728.00;;;19.50
15079;BMP180;6932;51.438;5.470;2023-05-10T08:41:24;100729.00;;;19.60
15079;BMP180;6932;51.438;5.470;2023-05-10T08:43:52;100733.00;;;19.60
15079;BMP180;6932;51.438;5.470;2023-05-10T08:46:21;100735.00;;;19.60
15079;BMP180;6932;51.438;5.470;2023-05-10T08:48:49;100734.00;;;19.60
15079;BMP180;6932;51.438;5.470;2023-05-10T08:51:19;100737.00;;;19.60
15079;BMP180;6932;51.438;5.470;2023-05-10T08:53:45;100736.00;;;19.70
15079;BMP180;6932;51.438;5.470;2023-05-10T08:56:11;100737.00;;;19.70
15079;BMP180;6932;51.438;5.470;2023-05-10T08:58:38;100738.00;;;19.70
15079;BMP180;6932;51.438;5.470;2023-05-10T09:01:05;100741.00;;;19.70
15079;BMP180;6932;51.438;5.470;2023-05-10T09:03:31;100745.00;;;19.80
15079;BMP180;6932;51.438;5.470;2023-05-10T09:05:58;100739.00;;;19.80
15079;BMP180;6932;51.438;5.470;2023-05-10T09:08:25;100741.00;;;19.80
15079;BMP180;6932;51.438;5.470;2023-05-10T09:10:52;100728.00;;;20.20
15079;BMP180;6932;51.438;5.470;2023-05-10T09:13:19;100722.00;;;20.10
15079;BMP180;6932;51.438;5.470;2023-05-10T09:15:45;100726.00;;;20.10
15079;BMP180;6932;51.438;5.470;2023-05-10T09:18:12;100735.00;;;20.10
15079;BMP180;6932;51.438;5.470;2023-05-10T09:20:38;100740.00;;;20.00
15079;BMP180;6932;51.438;5.470;2023-05-10T09:23:03;100737.00;;;20.10
15079;BMP180;6932;51.438;5.470;2023-05-10T09:25:30;100728.00;;;20.10
15079;BMP180;6932;51.438;5.470;2023-05-10T09:27:58;100729.00;;;20.10
15079;BMP180;6932;51.438;5.470;2023-05-10T09:30:29;100752.00;;;20.10
15079;BMP180;6932;51.438;5.470;2023-05-10T09:32:57;100739.00;;;20.20
15079;BMP180;6932;51.438;5.470;2023-05-10T09:35:26;100727.00;;;20.20
15079;BMP180;6932;51.438;5.470;2023-05-10T09:37:55;100739.00;;;20.20
15079;BMP180;6932;51.438;5.470;2023-05-10T09:40:25;100740.00;;;20.30
15079;BMP180;6932;51.438;5.470;2023-05-10T09:43:09;100740.00;;;20.30
15079;BMP180;6932;51.438;5.470;2023-05-10T09:45:36;100751.00;;;20.30
15079;BMP180;6932;51.438;5.470;2023-05-10T09:48:03;100735.00;;;20.40
15079;BMP180;6932;51.438;5.470;2023-05-10T09:51:22;100752.00;;;20.40
15079;BMP180;6932;51.438;5.470;2023-05-10T09:53:48;100747.00;;;20.40
15079;BMP180;6932;51.438;5.470;2023-05-10T09:56:35;100753.00;;;20.40
15079;BMP180;6932;51.438;5.470;2023-05-10T09:59:05;100754.00;;;20.40
15079;BMP180;6932;51.438;5.470;2023-05-10T10:12:44;100754.00;;;20.40
15079;BMP180;6932;51.438;5.470;2023-05-10T10:15:10;100759.00;;;20.40
15079;BMP180;6932;51.438;5.470;2023-05-10T10:17:37;100754.00;;;20.50
15079;BMP180;6932;51.438;5.470;2023-05-10T10:20:06;100747.00;;;20.50
15079;BMP180;6932;51.438;5.470;2023-05-10T10:22:33;100753.00;;;20.50
15079;BMP180;6932;51.438;5.470;2023-05-10T10:24:59;100753.00;;;20.60
15079;BMP180;6932;51.438;5.470;2023-05-10T10:47:42;100745.00;;;21.00
15079;BMP180;6932;51.438;5.470;2023-05-10T10:50:09;100740.00;;;21.00
15079;BMP180;6932;51.438;5.470;2023-05-10T10:52:45;100745.00;;;21.10
15079;BMP180;6932;51.438;5.470;2023-05-10T10:55:13;100750.00;;;21.10
15079;BMP180;6932;51.438;5.470;2023-05-10T10:57:51;100748.00;;;21.10
15079;BMP180;6932;51.438;5.470;2023-05-10T11:02:56;100752.00;;;21.10
15079;BMP180;6932;51.438;5.470;2023-05-10T11:22:52;100763.00;;;21.10
15079;BMP180;6932;51.438;5.470;2023-05-10T11:25:19;100770.00;;;21.10
15079;BMP180;6932;51.438;5.470;2023-05-10T11:27:47;100748.00;;;21.20
15079;BMP180;6932;51.438;5.470;2023-05-10T11:30:14;100763.00;;;21.20
15079;BMP180;6932;51.438;5.470;2023-05-10T11:32:40;100753.00;;;21.30
15079;BMP180;6932;51.438;5.470;2023-05-10T11:35:11;100761.00;;;21.30
15079;BMP180;6932;51.438;5.470;2023-05-10T11:37:39;100752.00;;;21.40
15079;BMP180;6932;51.438;5.470;2023-05-10T11:40:09;100759.00;;;21.40
15079;BMP180;6932;51.438;5.470;2023-05-10T12:06:04;100785.00;;;21.60
15079;BMP180;6932;51.438;5.470;2023-05-10T12:08:30;100775.00;;;21.70
15079;BMP180;6932;51.438;5.470;2023-05-10T12:11:16;100777.00;;;21.80
15079;BMP180;6932;51.438;5.470;2023-05-10T12:13:44;100770.00;;;21.90
15079;BMP180;6932;51.438;5.470;2023-05-10T12:16:19;100794.00;;;21.90
15079;BMP180;6932;51.438;5.470;2023-05-10T12:18:49;100788.00;;;22.00
15079;BMP180;6932;51.438;5.470;2023-05-10T12:36:11;100807.00;;;22.00
15079;BMP180;6932;51.438;5.470;2023-05-10T12:38:42;100805.00;;;22.00
15079;BMP180;6932;51.438;5.470;2023-05-10T12:41:12;100807.00;;;21.90
15079;BMP180;6932;51.438;5.470;2023-05-10T12:43:39;100811.00;;;21.90
15079;BMP180;6932;51.438;5.470;2023-05-10T12:46:09;100816.00;;;21.80
15079;BMP180;6932;51.438;5.470;2023-05-10T12:48:38;100813.00;;;21.70
15079;BMP180;6932;51.438;5.470;2023-05-10T12:51:05;100814.00;;;21.70
15079;BMP180;6932;51.438;5.470;2023-05-10T12:53:35;100820.00;;;21.60
15079;BMP180;6932;51.438;5.470;2023-05-10T12:56:02;100816.00;;;21.60
15079;BMP180;6932;51.438;5.470;2023-05-10T12:58:27;100814.00;;;21.50
15079;BMP180;6932;51.438;5.470;2023-05-10T13:00:53;100813.00;;;21.50
15079;BMP180;6932;51.438;5.470;2023-05-10T13:03:22;100822.00;;;21.50
15079;BMP180;6932;51.438;5.470;2023-05-10T13:05:48;100815.00;;;21.40
15079;BMP180;6932;51.438;5.470;2023-05-10T13:08:14;100811.00;;;21.40
15079;BMP180;6932;51.438;5.470;2023-05-10T13:10:40;100824.00;;;21.40
15079;BMP180;6932;51.438;5.470;2023-05-10T13:13:06;100811.00;;;21.30
15079;BMP180;6932;51.438;5.470;2023-05-10T13:15:45;100822.00;;;21.30
15079;BMP180;6932;51.438;5.470;2023-05-10T13:18:10;100815.00;;;21.20
15079;BMP180;6932;51.438;5.470;2023-05-10T13:20:36;100822.00;;;21.20
15079;BMP180;6932;51.438;5.470;2023-05-10T13:23:02;100843.00;;;21.20
15079;BMP180;6932;51.438;5.470;2023-05-10T13:25:28;100843.00;;;21.20
15079;BMP180;6932;51.438;5.470;2023-05-10T13:27:54;100847.00;;;21.10
15079;BMP180;6932;51.438;5.470;2023-05-10T13:30:19;100845.00;;;21.10
15079;BMP180;6932;51.438;5.470;2023-05-10T13:32:45;100838.00;;;21.10
15079;BMP180;6932;51.438;5.470;2023-05-10T13:35:11;100844.00;;;21.10
15079;BMP180;6932;51.438;5.470;2023-05-10T13:37:37;100844.00;;;21.10
15079;BMP180;6932;51.438;5.470;2023-05-10T13:40:04;100849.00;;;21.10
15079;BMP180;6932;51.438;5.470;2023-05-10T13:42:30;100846.00;;;21.10
15079;BMP180;6932;51.438;5.470;2023-05-10T13:44:57;100850.00;;;21.10
15079;BMP180;6932;51.438;5.470;2023-05-10T13:47:22;100848.00;;;21.00
15079;BMP180;6932;51.438;5.470;2023-05-10T13:49:48;100852.00;;;21.00
15079;BMP180;6932;51.438;5.470;2023-05-10T13:52:14;100852.00;;;21.00
15079;BMP180;6932;51.438;5.470;2023-05-10T13:54:40;100852.00;;;20.90
15079;BMP180;6932;51.438;5.470;2023-05-10T13:57:05;100847.00;;;20.80
15079;BMP180;6932;51.438;5.470;2023-05-10T13:59:32;100854.00;;;20.70
15079;BMP180;6932;51.438;5.470;2023-05-10T15:36:58;100867.00;;;19.40
15079;BMP180;6932;51.438;5.470;2023-05-10T15:39:24;100872.00;;;19.40
15079;BMP180;6932;51.438;5.470;2023-05-10T15:41:50;100870.00;;;19.50
15079;BMP180;6932;51.438;5.470;2023-05-10T15:44:16;100878.00;;;19.50
15079;BMP180;6932;51.438;5.470;2023-05-10T15:46:42;100869.00;;;19.50
15079;BMP180;6932;51.438;5.470;2023-05-10T15:49:07;100883.00;;;19.50
15079;BMP180;6932;51.438;5.470;2023-05-10T15:51:33;100877.00;;;19.50
15079;BMP180;6932;51.438;5.470;2023-05-10T15:53:59;100878.00;;;19.50
15079;BMP180;6932;51.438;5.470;2023-05-10T16:00:10;100894.00;;;19.40
15079;BMP180;6932;51.438;5.470;2023-05-10T16:02:36;100901.00;;;19.50
15079;BMP180;6932;51.438;5.470;2023-05-10T16:05:03;100892.00;;;19.50
15079;BMP180;6932;51.438;5.470;2023-05-10T16:07:29;100895.00;;;19.50
15079;BMP180;6932;51.438;5.470;2023-05-10T16:09:55;100900.00;;;19.50
15079;BMP180;6932;51.438;5.470;2023-05-10T16:12:21;100908.00;;;19.50
15079;BMP180;6932;51.438;5.470;2023-05-10T16:18:27;100913.00;;;19.40
15079;BMP180;6932;51.438;5.470;2023-05-10T16:20:53;100917.00;;;19.40
15079;BMP180;6932;51.438;5.470;2023-05-10T16:23:19;100923.00;;;19.40
15079;BMP180;6932;51.438;5.470;2023-05-10T16:25:45;100921.00;;;19.40
15079;BMP180;6932;51.438;5.470;2023-05-10T16:28:11;100914.00;;;19.40
15079;BMP180;6932;51.438;5.470;2023-05-10T16:30:37;100908.00;;;19.40
15079;BMP180;6932;51.438;5.470;2023-05-10T16:33:03;100919.00;;;19.40
15079;BMP180;6932;51.438;5.470;2023-05-10T16:35:28;100916.00;;;19.40
15079;BMP180;6932;51.438;5.470;2023-05-10T16:37:56;100916.00;;;19.40
15079;BMP180;6932;51.438;5.470;2023-05-10T16:40:22;100914.00;;;19.40
15079;BMP180;6932;51.438;5.470;2023-05-10T16:42:48;100906.00;;;19.40
15079;BMP180;6932;51.438;5.470;2023-05-10T16:45:14;100900.00;;;19.40
15079;BMP180;6932;51.438;5.470;2023-05-10T16:47:41;100896.00;;;19.30
15079;BMP180;6932;51.438;5.470;2023-05-10T16:50:07;100905.00;;;19.30
15079;BMP180;6932;51.438;5.470;2023-05-10T16:52:34;100908.00;;;19.30
15079;BMP180;6932;51.438;5.470;2023-05-10T16:55:01;100915.00;;;19.30
15079;BMP180;6932;51.438;5.470;2023-05-10T16:57:27;100920.00;;;19.30
15079;BMP180;6932;51.438;5.470;2023-05-10T16:59:53;100929.00;;;19.30
15079;BMP180;6932;51.438;5.470;2023-05-10T17:02:23;100924.00;;;19.30
15079;BMP180;6932;51.438;5.470;2023-05-10T17:04:49;100925.00;;;19.30
15079;BMP180;6932;51.438;5.470;2023-05-10T17:07:17;100931.00;;;19.30
15079;BMP180;6932;51.438;5.470;2023-05-10T17:09:43;100924.00;;;19.30
15079;BMP180;6932;51.438;5.470;2023-05-10T17:12:59;100928.00;;;19.40
15079;BMP180;6932;51.438;5.470;2023-05-10T17:15:25;100936.00;;;19.40
15079;BMP180;6932;51.438;5.470;2023-05-10T17:17:51;100932.00;;;19.40
15079;BMP180;6932;51.438;5.470;2023-05-10T17:20:17;100933.00;;;19.40
15079;BMP180;6932;51.438;5.470;2023-05-10T17:22:42;100939.00;;;19.40
15079;BMP180;6932;51.438;5.470;2023-05-10T17:25:08;100942.00;;;19.40
15079;BMP180;6932;51.438;5.470;2023-05-10T17:27:34;100946.00;;;19.50
15079;BMP180;6932;51.438;5.470;2023-05-10T17:30:00;100947.00;;;19.50
15079;BMP180;6932;51.438;5.470;2023-05-10T17:32:26;100942.00;;;19.40
15079;BMP180;6932;51.438;5.470;2023-05-10T17:38:32;100948.00;;;19.40
15079;BMP180;6932;51.438;5.470;2023-05-10T17:40:58;100945.00;;;19.40
15079;BMP180;6932;51.438;5.470;2023-05-10T17:43:24;100942.00;;;19.40
15079;BMP180;6932;51.438;5.470;2023-05-10T17:45:50;100948.00;;;19.30
15079;BMP180;6932;51.438;5.470;2023-05-10T17:48:16;100942.00;;;19.30